Portada
METAR-TAF:

METAR-TAF

Aeroports :

Odiham, Anglaterra

latitud: 51-14N, longitud: 000-57W, altitud: 123 m

Observació

L'informe es va fer fa 24 minuts, a les 13:50 UTC
Vent 8 kt del Est/Sud-Est
Temperatura 18°C
Humitat 39%
Pressió 1027 hPa
Visibilitat 10 km o més
sense núvols per sota de 1500 mi sense presència de cumulonimbus.

METAR: EGVO 071350Z 11008KT CAVOK 18/04 Q1027 NOSIG RMK BLU BLU

Hora: 15:14 (14:14 UTC)

Pronòstic

L'informe es va fer fa 3 hores i 45 minuts, a les 10:29 UTC
Pronòstic vàlid del 07 a les 12 UTC al 07 a les 24 UTC
Vent 8 kt del Est/Sud-Est
Visibilitat 10 km o més
sense núvols per sota de 1500 mi sense presència de cumulonimbus.

TAF: EGVO 071029Z 0712/0724 12008KT CAVOK

Observacions i pronòstics meteorològics de més de 4000 aeroports (METAR i TAF).

Les estacions disponibles són els punts grocs i vermells al mapa.

Posi el ratolí al punt desitjat per veure el nom de l'estació.

Feu clic per veure les observacions i els pronòstics meteorològics.

Per canviar el mapa: feu clic els botons verds amb una creu de color negre per apropar; al botó verd amb un guió per allunyar la imatge; o en les fletxes verdes per a mapes adjacents.


METAR-TAF: